Time;durP1;ratioP1;P1;durP2;ratioP2;P2;SDS_P1;SDS_P2;PMS_P1;PMS_P2;Temp;Humidity;BMP_temperature;BMP_pressure;BME280_temperature;BME280_humidity;BME280_pressure;Samples;Min_cycle;Max_cycle;Signal;HPM_P1;HPM_P2
2023/06/29 00:01:28;;;;;;;31.60;12.68;;;;;;;19.87;80.45;101757.66;6109767;19;20011;-73
2023/06/29 00:03:34;;;;;;;37.45;14.70;;;;;;;19.88;80.75;101750.50;6109535;19;20003;-73
2023/06/29 00:05:40;;;;;;;32.53;13.10;;;;;;;19.86;80.92;101755.94;6111295;19;20007;-73
2023/06/29 00:07:46;;;;;;;31.75;14.45;;;;;;;19.88;80.84;101748.72;6111245;19;20035;-73
2023/06/29 00:09:52;;;;;;;31.65;13.70;;;;;;;19.88;80.75;101755.84;6113122;19;20324;-73
2023/06/29 00:12:01;;;;;;;32.13;13.45;;;;;;;19.87;80.88;101751.47;6110914;19;20030;-73
2023/06/29 00:14:07;;;;;;;36.00;14.82;;;;;;;19.82;81.60;101750.91;6110418;19;20021;-72
2023/06/29 00:16:12;;;;;;;36.78;15.02;;;;;;;19.84;81.50;101749.00;6112095;19;20041;-75
2023/06/29 00:18:18;;;;;;;33.92;13.50;;;;;;;19.84;81.32;101749.00;6112044;19;20394;-74
2023/06/29 00:20:28;;;;;;;34.78;13.80;;;;;;;19.79;81.44;101741.28;6100521;19;20011;-74
2023/06/29 00:22:33;;;;;;;37.60;15.93;;;;;;;19.82;81.58;101741.09;6109813;19;20479;-74
2023/06/29 00:24:43;;;;;;;34.92;16.00;;;;;;;19.78;82.36;101744.94;6110433;19;20038;-72
2023/06/29 00:26:48;;;;;;;40.20;15.65;;;;;;;19.78;82.09;101741.41;6111967;19;20019;-74
2023/06/29 00:28:59;;;;;;;37.65;15.27;;;;;;;19.79;82.17;101743.13;6097211;19;20051;-76
2023/06/29 00:31:04;;;;;;;36.30;16.25;;;;;;;19.79;82.13;101740.44;6098868;19;20014;-74
2023/06/29 00:33:10;;;;;;;33.83;14.95;;;;;;;19.78;81.88;101736.94;6110890;19;20043;-74
2023/06/29 00:35:15;;;;;;;38.60;14.48;;;;;;;19.74;82.83;101743.41;6109039;19;20336;-74
2023/06/29 00:37:22;;;;;;;38.47;15.40;;;;;;;19.72;82.54;101735.53;6106766;19;20006;-74
2023/06/29 00:39:28;;;;;;;37.90;16.13;;;;;;;19.70;82.74;101737.44;6110965;19;20022;-74
2023/06/29 00:41:33;;;;;;;36.08;15.35;;;;;;;19.72;83.32;101735.53;6109870;19;20022;-73
2023/06/29 00:43:38;;;;;;;39.53;16.27;;;;;;;19.70;83.11;101729.44;6109793;19;20085;-74
2023/06/29 00:45:46;;;;;;;39.30;13.93;;;;;;;19.69;82.92;101725.03;6110210;19;20032;-74
2023/06/29 00:47:51;;;;;;;32.33;13.95;;;;;;;19.69;82.97;101725.03;6110730;19;20019;-74
2023/06/29 00:49:56;;;;;;;36.35;14.68;;;;;;;19.70;83.28;101728.56;6111443;19;20360;-74
2023/06/29 00:52:03;;;;;;;40.00;16.17;;;;;;;19.67;83.53;101718.97;6111029;19;20031;-75
2023/06/29 00:54:08;;;;;;;32.22;15.18;;;;;;;19.70;83.51;101710.75;6109815;19;20018;-72
2023/06/29 00:56:13;;;;;;;39.90;16.08;;;;;;;19.68;83.39;101711.81;6108121;19;20479;-72
2023/06/29 00:58:18;;;;;;;33.67;14.20;;;;;;;19.69;83.09;101710.84;6111056;19;20471;-72
2023/06/29 01:00:24;;;;;;;37.08;15.25;;;;;;;19.62;83.18;101709.53;6115779;19;19999;-73
2023/06/29 01:02:35;;;;;;;35.08;14.95;;;;;;;19.58;83.98;101705.31;6116194;19;20007;-73
2023/06/29 01:04:40;;;;;;;37.20;14.45;;;;;;;19.61;83.78;101711.31;6116531;19;20007;-74
2023/06/29 01:06:51;;;;;;;33.17;14.70;;;;;;;19.62;83.33;101707.72;6116964;19;20483;-73
2023/06/29 01:09:04;;;;;;;30.75;13.48;;;;;;;19.62;83.55;101709.53;6112999;19;20011;-75
2023/06/29 01:11:10;;;;;;;38.00;14.55;;;;;;;19.62;83.03;101707.72;6116728;19;20403;-74
2023/06/29 01:13:18;;;;;;;31.95;14.18;;;;;;;19.62;83.29;101707.72;6114859;19;20464;-74
2023/06/29 01:15:26;;;;;;;33.63;14.63;;;;;;;19.60;82.97;101716.75;6116632;19;20356;-74
2023/06/29 01:17:40;;;;;;;34.80;15.65;;;;;;;19.56;83.45;101708.09;6115820;19;20039;-74
2023/06/29 01:19:49;;;;;;;38.05;15.38;;;;;;;19.54;83.59;101707.34;6114840;19;20360;-74
2023/06/29 01:22:05;;;;;;;32.72;14.98;;;;;;;19.56;83.49;101709.91;6116903;19;20041;-74
2023/06/29 01:24:11;;;;;;;33.08;15.07;;;;;;;19.52;83.48;101702.09;6115751;19;20052;-74
2023/06/29 01:26:19;;;;;;;36.42;14.85;;;;;;;19.56;83.81;101704.56;6114878;19;20060;-74
2023/06/29 01:28:24;;;;;;;35.50;15.30;;;;;;;19.59;83.19;101710.56;6115878;19;20006;-73
2023/06/29 01:30:31;;;;;;;35.83;15.75;;;;;;;19.58;84.17;101700.00;6115572;19;20007;-73
2023/06/29 01:32:36;;;;;;;34.63;15.57;;;;;;;19.60;82.84;101693.59;6115197;19;20451;-74
2023/06/29 01:34:42;;;;;;;36.80;15.00;;;;;;;19.60;83.96;101688.28;6115126;19;20463;-73
2023/06/29 01:36:50;;;;;;;37.28;14.68;;;;;;;19.58;83.88;101678.66;6113705;19;20006;-74
2023/06/29 01:39:03;;;;;;;33.25;14.95;;;;;;;19.58;84.33;101690.19;6112719;19;20078;-74
2023/06/29 01:41:09;;;;;;;35.17;14.32;;;;;;;19.56;84.57;101683.22;6115752;19;20022;-73
2023/06/29 01:43:19;;;;;;;37.13;15.48;;;;;;;19.58;85.08;101682.19;6114516;19;20113;-75
2023/06/29 01:45:28;;;;;;;40.22;16.90;;;;;;;19.55;86.45;101685.06;6116189;19;20030;-74
2023/06/29 01:47:34;;;;;;;40.08;18.05;;;;;;;19.48;86.60;101675.72;6115923;19;20035;-74
2023/06/29 01:49:39;;;;;;;42.97;17.00;;;;;;;19.43;87.83;101667.19;6114346;19;20019;-74
2023/06/29 01:51:47;;;;;;;46.35;19.83;;;;;;;19.39;88.28;101679.00;6115942;19;20013;-75
2023/06/29 01:53:53;;;;;;;44.00;16.38;;;;;;;19.39;88.08;101679.84;6116390;19;20006;-74
2023/06/29 01:55:58;;;;;;;45.50;18.45;;;;;;;19.36;87.78;101674.72;6114739;19;20007;-75
2023/06/29 01:58:03;;;;;;;38.58;18.73;;;;;;;19.39;88.66;101671.00;6114100;19;20023;-74
2023/06/29 02:00:13;;;;;;;41.13;17.42;;;;;;;19.42;88.94;101661.00;6114801;19;20043;-74
2023/06/29 02:02:18;;;;;;;43.08;18.08;;;;;;;19.43;88.54;101673.38;6116079;19;20006;-75
2023/06/29 02:04:23;;;;;;;39.90;17.25;;;;;;;19.40;88.91;101662.91;6116479;19;20006;-75
2023/06/29 02:06:34;;;;;;;39.53;17.45;;;;;;;19.37;89.75;101670.25;6116574;19;20488;-74
2023/06/29 02:08:39;;;;;;;43.15;18.08;;;;;;;19.35;89.55;101670.34;6114697;19;20002;-75
2023/06/29 02:10:44;;;;;;;37.75;17.00;;;;;;;19.30;89.65;101670.66;6116267;19;20034;-75
2023/06/29 02:12:49;;;;;;;44.28;17.70;;;;;;;19.36;89.74;101672.06;6113190;19;20006;-74
2023/06/29 02:14:54;;;;;;;46.95;18.38;;;;;;;19.29;89.29;101662.75;6112783;19;20022;-73
2023/06/29 02:17:02;;;;;;;44.00;18.05;;;;;;;19.33;89.67;101668.75;6114584;19;20046;-73
2023/06/29 02:19:07;;;;;;;49.33;19.45;;;;;;;19.33;89.73;101658.09;6114768;19;20007;-73
2023/06/29 02:21:20;;;;;;;42.85;18.15;;;;;;;19.33;89.82;101660.75;6115055;19;20144;-75
2023/06/29 02:23:25;;;;;;;42.28;18.40;;;;;;;19.29;91.01;101649.41;6115586;19;20022;-74
2023/06/29 02:25:36;;;;;;;43.53;18.08;;;;;;;19.26;89.85;101646.94;6114462;19;20062;-74
2023/06/29 02:27:41;;;;;;;50.55;18.35;;;;;;;19.20;89.88;101650.88;6113177;19;20043;-75
2023/06/29 02:29:48;;;;;;;47.72;18.52;;;;;;;19.26;89.95;101644.28;6113551;19;20355;-74
2023/06/29 02:31:53;;;;;;;46.67;20.40;;;;;;;19.23;89.63;101645.34;6115006;19;20010;-74
2023/06/29 02:34:02;;;;;;;45.38;19.13;;;;;;;19.14;90.67;101643.28;6112829;19;20503;-74
2023/06/29 02:36:09;;;;;;;44.88;19.80;;;;;;;19.18;90.64;101638.59;6113755;19;20031;-72
2023/06/29 02:38:14;;;;;;;43.88;18.63;;;;;;;19.19;90.42;101637.63;6113674;19;20017;-73
2023/06/29 02:40:19;;;;;;;49.65;20.98;;;;;;;19.17;90.45;101636.88;6113720;19;19999;-73
2023/06/29 02:42:25;;;;;;;43.72;19.45;;;;;;;19.12;90.39;101633.69;6113267;19;20019;-74
2023/06/29 02:44:34;;;;;;;44.38;18.90;;;;;;;19.17;90.22;101642.19;6106586;19;20075;-74
2023/06/29 02:46:39;;;;;;;41.67;19.83;;;;;;;19.12;90.52;101645.19;6115193;19;20128;-74
2023/06/29 02:48:44;;;;;;;48.83;21.17;;;;;;;19.12;91.09;101639.00;6110314;19;20012;-74
2023/06/29 02:50:52;;;;;;;43.38;20.23;;;;;;;19.14;90.50;101640.63;6114650;19;20039;-75
2023/06/29 02:52:58;;;;;;;48.15;20.60;;;;;;;19.15;90.68;101634.31;6110618;19;20031;-75
2023/06/29 02:55:03;;;;;;;54.25;20.67;;;;;;;19.17;92.03;101636.88;6112722;19;20047;-74
2023/06/29 02:57:08;;;;;;;41.30;20.25;;;;;;;19.15;90.66;101636.97;6112507;19;20022;-73
2023/06/29 02:59:13;;;;;;;47.50;19.00;;;;;;;19.14;91.96;101632.63;6114048;19;20023;-73
2023/06/29 03:01:19;;;;;;;44.33;18.75;;;;;;;19.14;90.52;101627.28;6114592;19;20023;-73
2023/06/29 03:03:23;;;;;;;46.75;19.58;;;;;;;19.15;90.59;101626.31;6115678;19;20463;-74
2023/06/29 03:05:32;;;;;;;48.63;21.10;;;;;;;19.16;91.30;101617.38;6113786;19;20018;-73
2023/06/29 03:07:40;;;;;;;42.15;19.13;;;;;;;19.17;90.41;101615.56;6114257;19;20396;-74
2023/06/29 03:09:47;;;;;;;48.75;21.00;;;;;;;19.15;89.83;101612.16;6112753;19;20022;-74
2023/06/29 03:11:53;;;;;;;48.53;19.92;;;;;;;19.15;90.21;101612.16;6115336;19;20021;-74
2023/06/29 03:13:59;;;;;;;44.55;20.67;;;;;;;19.15;90.44;101606.81;6112172;19;20007;-76
2023/06/29 03:16:04;;;;;;;45.15;20.58;;;;;;;19.10;90.08;101606.28;6113820;19;20010;-74
2023/06/29 03:18:09;;;;;;;45.25;20.30;;;;;;;19.08;90.37;101615.19;6113650;19;20027;-74
2023/06/29 03:20:15;;;;;;;44.88;19.63;;;;;;;19.08;90.70;101606.34;6115167;19;20021;-76
2023/06/29 03:22:21;;;;;;;45.30;19.25;;;;;;;19.07;90.13;101616.16;6111843;19;20414;-76
2023/06/29 03:24:29;;;;;;;50.25;21.20;;;;;;;19.06;89.71;101616.25;6112760;19;20007;-76
2023/06/29 03:26:34;;;;;;;54.33;21.65;;;;;;;19.07;90.17;101620.63;6112423;19;20036;-76
2023/06/29 03:28:40;;;;;;;50.47;21.83;;;;;;;19.05;90.65;101602.06;6112906;19;20031;-75
2023/06/29 03:30:47;;;;;;;49.70;21.45;;;;;;;19.05;90.40;101603.88;6112900;19;20336;-75
2023/06/29 03:32:53;;;;;;;54.35;22.05;;;;;;;19.05;90.34;101603.88;6111395;19;20006;-74
2023/06/29 03:34:58;;;;;;;45.60;20.38;;;;;;;19.04;90.21;101602.19;6111178;19;20074;-75
2023/06/29 03:37:03;;;;;;;45.47;20.13;;;;;;;19.02;91.56;101607.59;6110170;19;20017;-74
2023/06/29 03:39:09;;;;;;;48.28;21.15;;;;;;;19.04;90.28;101604.84;6112906;19;20038;-74
2023/06/29 03:41:18;;;;;;;45.83;19.60;;;;;;;19.05;90.03;101602.06;6111249;19;20034;-74
2023/06/29 03:43:23;;;;;;;44.47;20.10;;;;;;;19.04;90.14;101594.19;6112521;19;20373;-74
2023/06/29 03:45:30;;;;;;;42.25;19.25;;;;;;;19.04;89.60;101596.88;6112798;19;20379;-73
2023/06/29 03:47:36;;;;;;;42.75;19.33;;;;;;;18.99;89.85;101601.63;6112124;19;20022;-74
2023/06/29 03:49:41;;;;;;;43.75;19.00;;;;;;;18.97;89.43;101600.88;6111671;19;20011;-74
2023/06/29 03:51:46;;;;;;;37.15;17.70;;;;;;;18.98;89.72;101598.09;6112976;19;20022;-73
2023/06/29 03:53:51;;;;;;;45.70;18.75;;;;;;;18.95;89.33;101600.94;6113777;19;20045;-73
2023/06/29 03:55:56;;;;;;;44.00;18.23;;;;;;;18.96;89.31;101601.84;6113555;19;20377;-73
2023/06/29 03:58:06;;;;;;;41.63;18.50;;;;;;;18.98;89.21;101602.56;6110499;19;20022;-73
2023/06/29 04:00:13;;;;;;;44.17;19.63;;;;;;;18.96;89.51;101596.50;6111191;19;20361;-74
2023/06/29 04:02:18;;;;;;;36.00;16.98;;;;;;;18.97;88.37;101598.19;6111908;19;20483;-73
2023/06/29 04:04:23;;;;;;;44.10;17.67;;;;;;;18.92;88.76;101601.16;6111631;19;20014;-74
2023/06/29 04:06:28;;;;;;;39.90;17.67;;;;;;;18.91;88.33;101603.94;6111464;19;20010;-76
2023/06/29 04:08:35;;;;;;;39.67;17.45;;;;;;;18.88;88.39;101594.31;6111688;19;20007;-74
2023/06/29 04:10:40;;;;;;;39.00;16.85;;;;;;;18.96;88.33;101599.16;6113119;19;20018;-74
2023/06/29 04:12:46;;;;;;;40.08;16.50;;;;;;;18.94;88.01;101599.25;6112725;19;20018;-75
2023/06/29 04:14:53;;;;;;;39.63;17.00;;;;;;;18.92;88.05;101592.31;6113272;19;20019;-75
2023/06/29 04:16:58;;;;;;;36.33;15.88;;;;;;;18.95;88.17;101597.44;6109398;19;20377;-74
2023/06/29 04:19:04;;;;;;;38.22;17.30;;;;;;;18.97;87.73;101587.53;6111266;19;20483;-74
2023/06/29 04:21:09;;;;;;;39.42;18.05;;;;;;;18.95;87.62;101592.09;6112085;19;20098;-74
2023/06/29 04:23:15;;;;;;;36.45;16.42;;;;;;;18.92;86.96;101586.97;6111452;19;20021;-75
2023/06/29 04:25:20;;;;;;;39.97;16.83;;;;;;;18.94;87.16;101593.94;6111613;19;20102;-75
2023/06/29 04:27:25;;;;;;;35.20;15.95;;;;;;;18.95;86.96;101584.13;6112049;19;20086;-74
2023/06/29 04:29:33;;;;;;;37.53;17.30;;;;;;;18.92;86.83;101579.84;6111895;19;20019;-74
2023/06/29 04:31:41;;;;;;;34.08;16.40;;;;;;;18.91;87.03;101591.47;6113186;19;20368;-73
2023/06/29 04:33:46;;;;;;;38.08;17.15;;;;;;;18.84;86.74;101590.13;6111747;19;20014;-74
2023/06/29 04:35:52;;;;;;;35.75;15.75;;;;;;;18.88;86.56;101580.13;6115436;19;20027;-76
2023/06/29 04:37:58;;;;;;;40.25;16.35;;;;;;;18.88;86.47;101585.44;6116866;19;20070;-74
2023/06/29 04:40:09;;;;;;;36.13;17.27;;;;;;;18.88;86.33;101574.81;6115963;19;20018;-76
2023/06/29 04:42:16;;;;;;;35.85;16.45;;;;;;;18.87;86.33;101571.28;6115102;19;20019;-75
2023/06/29 04:44:22;;;;;;;34.97;16.33;;;;;;;18.85;86.01;101579.41;6117070;19;20014;-75
2023/06/29 04:46:28;;;;;;;39.92;16.42;;;;;;;18.91;86.42;101571.97;6118428;19;20047;-73
2023/06/29 04:48:37;;;;;;;35.63;15.57;;;;;;;18.90;86.38;101571.09;6116801;19;20015;-75
2023/06/29 04:50:43;;;;;;;33.13;15.50;;;;;;;18.94;86.23;101572.63;6117574;19;20006;-76
2023/06/29 04:52:48;;;;;;;34.83;15.40;;;;;;;18.97;86.25;101576.88;6117610;19;20019;-74
2023/06/29 04:54:53;;;;;;;38.00;16.92;;;;;;;18.96;85.79;101578.72;6114297;19;20434;-73
2023/06/29 04:56:59;;;;;;;39.78;17.42;;;;;;;18.98;85.53;101587.44;6116805;19;20018;-73
2023/06/29 04:59:04;;;;;;;38.28;16.42;;;;;;;18.96;85.40;101589.34;6111854;19;20028;-74
2023/06/29 05:01:09;;;;;;;41.72;18.58;;;;;;;18.97;85.00;101580.41;6116434;19;20493;-74
2023/06/29 05:03:14;;;;;;;39.33;17.30;;;;;;;19.00;85.40;101582.03;6116024;19;20018;-73
2023/06/29 05:05:22;;;;;;;39.47;18.00;;;;;;;19.02;85.31;101582.78;6116953;19;20050;-73
2023/06/29 05:07:29;;;;;;;39.40;19.20;;;;;;;19.01;85.45;101575.72;6114367;19;20022;-74
2023/06/29 05:09:38;;;;;;;44.17;19.17;;;;;;;19.00;85.42;101576.69;6114356;19;20015;-74
2023/06/29 05:11:43;;;;;;;37.55;16.60;;;;;;;19.03;85.28;101577.34;6117071;19;20022;-73
2023/06/29 05:13:48;;;;;;;41.45;19.35;;;;;;;19.08;84.94;101579.72;6116125;19;20007;-74
2023/06/29 05:15:53;;;;;;;46.85;19.63;;;;;;;18.98;84.91;101576.78;6116968;19;20019;-75
2023/06/29 05:17:58;;;;;;;46.22;20.52;;;;;;;18.99;85.18;101575.84;6116941;19;20078;-73
2023/06/29 05:20:04;;;;;;;50.50;20.45;;;;;;;19.05;85.27;101569.25;6114569;19;20506;-75
2023/06/29 05:22:12;;;;;;;47.20;19.67;;;;;;;19.02;85.11;101561.47;6110177;19;20021;-73
2023/06/29 05:24:17;;;;;;;43.33;19.65;;;;;;;19.08;85.22;101555.75;6115312;19;20574;-72
2023/06/29 05:26:23;;;;;;;49.17;20.58;;;;;;;19.07;85.14;101562.88;6115004;19;20467;-72
2023/06/29 05:28:30;;;;;;;52.25;21.85;;;;;;;19.08;85.34;101558.41;6116099;19;20058;-72
2023/06/29 05:30:36;;;;;;;54.20;23.60;;;;;;;19.19;85.26;101563.88;6116110;19;20015;-74
2023/06/29 05:32:41;;;;;;;52.85;23.63;;;;;;;19.23;84.76;101561.88;6116584;19;20028;-73
2023/06/29 05:34:47;;;;;;;49.42;22.48;;;;;;;19.19;84.46;101566.53;6115763;19;20009;-74
2023/06/29 05:36:52;;;;;;;46.38;21.83;;;;;;;19.24;84.70;101563.59;6117648;19;20007;-73
2023/06/29 05:39:02;;;;;;;53.85;25.23;;;;;;;19.20;84.80;101562.09;6111637;19;20094;-72
2023/06/29 05:41:07;;;;;;;51.85;21.73;;;;;;;19.27;84.91;101561.59;6115453;19;20011;-73
2023/06/29 05:43:12;;;;;;;52.67;23.08;;;;;;;19.30;84.45;101563.19;6114573;19;20038;-74
2023/06/29 05:45:17;;;;;;;55.47;24.25;;;;;;;19.30;84.31;101569.38;6116026;19;20034;-73
2023/06/29 05:47:22;;;;;;;60.22;23.63;;;;;;;19.33;84.03;101565.66;6115937;19;20150;-74
2023/06/29 05:49:30;;;;;;;62.13;23.70;;;;;;;19.36;84.30;101562.78;6115195;19;20003;-72
2023/06/29 05:51:37;;;;;;;58.30;24.10;;;;;;;19.30;84.62;101568.53;6116205;19;20017;-73
2023/06/29 05:53:44;;;;;;;54.97;22.05;;;;;;;19.36;84.70;101567.28;6114030;19;20043;-73
2023/06/29 05:55:52;;;;;;;51.28;22.17;;;;;;;19.31;84.48;101572.91;6116370;19;20034;-75
2023/06/29 05:57:58;;;;;;;52.05;21.98;;;;;;;19.28;84.05;101571.28;6113797;19;20054;-74
2023/06/29 06:00:07;;;;;;;58.10;22.55;;;;;;;19.30;84.37;101572.03;6116186;19;20003;-74
2023/06/29 06:02:11;;;;;;;49.17;22.15;;;;;;;19.38;84.23;101576.00;6117721;19;20508;-73
2023/06/29 06:04:17;;;;;;;52.13;23.92;;;;;;;19.34;84.04;101569.19;6117558;19;20010;-74
2023/06/29 06:06:22;;;;;;;54.38;24.20;;;;;;;19.33;84.24;101564.81;6115308;19;20014;-72
2023/06/29 06:08:36;;;;;;;53.17;23.35;;;;;;;19.44;84.35;101567.63;6115749;19;20345;-73
2023/06/29 06:10:42;;;;;;;59.30;24.08;;;;;;;19.46;84.64;101568.38;6114708;19;20026;-72
2023/06/29 06:12:50;;;;;;;58.50;25.52;;;;;;;19.41;84.65;101567.81;6114505;19;20447;-72
2023/06/29 06:14:55;;;;;;;66.07;27.10;;;;;;;19.25;84.69;101571.50;6111874;19;20015;-72
2023/06/29 06:17:03;;;;;;;61.40;26.15;;;;;;;19.35;84.63;101563.72;6112535;19;20083;-71
2023/06/29 06:19:09;;;;;;;60.08;26.58;;;;;;;19.36;84.33;101570.78;6113435;19;20565;-73
2023/06/29 06:21:15;;;;;;;65.30;26.85;;;;;;;19.41;84.67;101568.66;6112903;19;20083;-72
2023/06/29 06:23:21;;;;;;;64.05;27.42;;;;;;;19.50;84.13;101565.38;6113833;19;20031;-73
2023/06/29 06:25:26;;;;;;;61.50;25.90;;;;;;;19.56;84.13;101565.94;6116136;19;20014;-74
2023/06/29 06:27:34;;;;;;;64.40;29.40;;;;;;;19.50;84.08;101565.38;6114850;19;20013;-72
2023/06/29 06:29:43;;;;;;;63.13;27.08;;;;;;;19.51;83.80;101564.44;6114219;19;20010;-72
2023/06/29 06:31:48;;;;;;;64.22;26.65;;;;;;;19.53;84.13;101565.16;6114435;19;20007;-73
2023/06/29 06:33:56;;;;;;;61.95;25.88;;;;;;;19.47;84.55;101570.06;6112421;19;20041;-74
2023/06/29 06:36:03;;;;;;;62.13;27.05;;;;;;;19.55;84.15;101570.41;6113157;19;20031;-72
2023/06/29 06:38:08;;;;;;;67.18;28.77;;;;;;;19.65;83.68;101563.50;6113093;19;20007;-73
2023/06/29 06:40:15;;;;;;;59.95;27.05;;;;;;;19.60;84.07;101567.44;6110849;19;20014;-73
2023/06/29 06:42:21;;;;;;;62.00;26.23;;;;;;;19.74;83.35;101567.41;6112549;19;20417;-74
2023/06/29 06:44:26;;;;;;;53.83;24.95;;;;;;;19.89;83.03;101576.19;6114432;19;20302;-74
2023/06/29 06:46:36;;;;;;;60.83;24.30;;;;;;;19.99;82.92;101565.75;6113217;19;20010;-74
2023/06/29 06:48:44;;;;;;;62.70;27.95;;;;;;;20.14;82.43;101568.22;6113729;19;20036;-73
2023/06/29 06:50:48;;;;;;;55.15;25.33;;;;;;;20.00;82.19;101565.63;6114870;19;20010;-73
2023/06/29 06:52:53;;;;;;;57.88;23.88;;;;;;;20.17;81.59;101567.16;6110010;19;20020;-74
2023/06/29 06:54:58;;;;;;;51.58;24.58;;;;;;;20.36;81.08;101566.72;6113504;19;20051;-74
2023/06/29 06:57:04;;;;;;;52.13;24.50;;;;;;;20.28;81.07;101563.72;6112190;19;20018;-73
2023/06/29 06:59:10;;;;;;;63.35;27.42;;;;;;;20.38;81.32;101572.81;6112968;19;20062;-71
2023/06/29 07:01:15;;;;;;;54.25;24.83;;;;;;;20.46;80.81;101565.09;6112297;19;20003;-73
2023/06/29 07:03:24;;;;;;;59.35;24.40;;;;;;;20.60;80.11;101573.00;6111799;19;20031;-72
2023/06/29 07:05:29;;;;;;;52.40;23.45;;;;;;;20.61;80.12;101573.84;6113841;19;20514;-72
2023/06/29 07:07:35;;;;;;;55.10;24.95;;;;;;;20.66;79.43;101561.03;6113398;19;20393;-72
2023/06/29 07:09:41;;;;;;;52.13;22.88;;;;;;;20.89;78.59;101561.19;6112981;19;20062;-72
2023/06/29 07:11:46;;;;;;;54.10;24.42;;;;;;;20.87;78.78;101560.44;6111325;19;20022;-73
2023/06/29 07:13:51;;;;;;;51.92;25.10;;;;;;;20.88;78.84;101567.47;6109801;19;20471;-73
2023/06/29 07:15:56;;;;;;;54.78;25.67;;;;;;;21.08;78.39;101563.38;6110848;19;20026;-73
2023/06/29 07:18:03;;;;;;;57.42;25.80;;;;;;;21.16;77.84;101567.19;6111246;19;20010;-73
2023/06/29 07:20:14;;;;;;;47.60;22.70;;;;;;;21.15;77.49;101561.97;6111556;19;20389;-73
2023/06/29 07:22:22;;;;;;;56.88;24.60;;;;;;;21.14;77.69;101570.94;6112457;19;20011;-73
2023/06/29 07:24:33;;;;;;;49.58;22.75;;;;;;;20.95;78.23;101564.25;6114705;19;20070;-73
2023/06/29 07:26:39;;;;;;;49.38;23.90;;;;;;;20.89;78.54;101570.06;6113684;19;20042;-74
2023/06/29 07:28:44;;;;;;;49.83;23.38;;;;;;;20.92;78.59;101558.28;6114404;19;20011;-73
2023/06/29 07:30:50;;;;;;;49.55;23.10;;;;;;;20.99;78.40;101567.59;6112318;19;20035;-73
2023/06/29 07:32:55;;;;;;;50.40;23.42;;;;;;;20.87;78.96;101561.28;6110426;19;20087;-74
2023/06/29 07:35:05;;;;;;;48.92;23.60;;;;;;;21.08;78.55;101560.69;6110704;19;20342;-70
2023/06/29 07:37:13;;;;;;;47.88;24.02;;;;;;;21.05;78.67;101554.59;6113200;19;20011;-71
2023/06/29 07:39:18;;;;;;;47.88;22.48;;;;;;;21.27;78.01;101561.91;6114170;19;20027;-74
2023/06/29 07:41:23;;;;;;;46.40;22.67;;;;;;;21.16;77.45;101551.16;6113567;19;20023;-72
2023/06/29 07:43:28;;;;;;;48.20;23.20;;;;;;;21.45;76.74;101556.19;6112625;19;20103;-73
2023/06/29 07:45:33;;;;;;;45.92;21.10;;;;;;;21.70;76.93;101555.19;6112685;19;20014;-73
2023/06/29 07:47:40;;;;;;;45.75;21.40;;;;;;;21.71;75.68;101548.84;6112292;19;20459;-75
2023/06/29 07:49:47;;;;;;;41.38;20.55;;;;;;;21.91;75.74;101548.19;6112847;19;20090;-72
2023/06/29 07:51:52;;;;;;;45.08;19.52;;;;;;;22.12;74.60;101547.50;6112880;19;20018;-72
2023/06/29 07:54:04;;;;;;;44.88;20.40;;;;;;;22.16;74.51;101543.59;6112976;19;20078;-72
2023/06/29 07:56:09;;;;;;;38.90;19.65;;;;;;;22.50;73.86;101547.16;6113358;19;20511;-72
2023/06/29 07:58:17;;;;;;;40.05;19.83;;;;;;;22.72;72.53;101546.31;6114601;19;20444;-72
2023/06/29 08:00:25;;;;;;;40.80;19.35;;;;;;;22.70;72.20;101539.38;6112175;19;20023;-72
2023/06/29 08:02:32;;;;;;;41.92;19.75;;;;;;;22.78;71.84;101536.94;6109447;19;20035;-72
2023/06/29 08:04:37;;;;;;;37.97;21.52;;;;;;;22.62;72.01;101531.06;6111412;19;20471;-75
2023/06/29 08:06:45;;;;;;;38.58;19.58;;;;;;;22.74;72.67;101535.47;6113257;19;20015;-73
2023/06/29 08:08:55;;;;;;;41.30;20.50;;;;;;;22.58;72.04;101549.22;6112819;19;20095;-74
2023/06/29 08:11:04;;;;;;;38.63;19.55;;;;;;;22.20;73.08;101537.06;6113026;19;20010;-73
2023/06/29 08:13:10;;;;;;;43.33;21.27;;;;;;;22.07;73.75;101539.81;6112629;19;20086;-74
2023/06/29 08:15:16;;;;;;;34.97;18.90;;;;;;;22.25;73.40;101542.91;6113365;19;20473;-74
2023/06/29 08:17:21;;;;;;;37.17;17.23;;;;;;;22.07;73.35;101545.19;6113250;19;20478;-73
2023/06/29 08:19:26;;;;;;;33.20;16.75;;;;;;;22.01;74.43;101547.47;6112797;19;20087;-74
2023/06/29 08:21:33;;;;;;;38.17;17.92;;;;;;;21.96;75.20;101547.84;6110835;19;20017;-74
2023/06/29 08:23:38;;;;;;;40.00;18.60;;;;;;;21.96;74.88;101541.63;6112891;19;20010;-74
2023/06/29 08:25:44;;;;;;;37.20;18.98;;;;;;;21.73;75.82;101546.94;6106809;19;20036;-73
2023/06/29 08:27:51;;;;;;;37.00;19.25;;;;;;;21.73;76.03;101541.56;6111669;19;20470;-73
2023/06/29 08:29:57;;;;;;;36.42;18.17;;;;;;;21.80;75.85;101532.13;6111119;19;20037;-73
2023/06/29 08:32:03;;;;;;;37.80;18.52;;;;;;;21.91;75.10;101529.47;6112353;19;20031;-72
2023/06/29 08:34:08;;;;;;;34.97;18.38;;;;;;;21.86;74.46;101528.13;6111051;19;20048;-72
2023/06/29 08:36:13;;;;;;;31.80;16.13;;;;;;;22.01;73.53;101534.97;6111431;19;20586;-72
2023/06/29 08:38:18;;;;;;;34.17;16.05;;;;;;;21.88;74.56;101523.47;6110771;19;20007;-72
2023/06/29 08:40:25;;;;;;;36.40;17.67;;;;;;;21.91;74.04;101529.47;6108099;19;20010;-72
2023/06/29 08:42:33;;;;;;;38.80;19.52;;;;;;;21.98;73.83;101531.66;6110049;19;20022;-73
2023/06/29 08:44:41;;;;;;;41.17;19.65;;;;;;;22.00;73.81;101533.22;6112122;19;20020;-74
2023/06/29 08:46:48;;;;;;;43.95;20.73;;;;;;;21.73;74.35;101538.06;6111433;19;20039;-73
2023/06/29 08:48:53;;;;;;;41.00;21.45;;;;;;;22.04;73.75;101529.34;6111489;19;20386;-74
2023/06/29 08:51:04;;;;;;;37.63;19.80;;;;;;;21.96;73.56;101533.59;6111361;19;20018;-73
2023/06/29 08:53:10;;;;;;;41.95;19.52;;;;;;;21.75;74.26;101530.75;6111306;19;20014;-72
2023/06/29 08:55:15;;;;;;;43.50;20.17;;;;;;;21.61;75.16;101535.31;6110309;19;19998;-72
2023/06/29 08:57:21;;;;;;;40.72;19.58;;;;;;;21.76;74.92;101533.31;6111820;19;20022;-72
2023/06/29 08:59:29;;;;;;;37.40;19.25;;;;;;;22.22;74.16;101531.56;6111152;19;20014;-74
2023/06/29 09:01:39;;;;;;;37.92;19.50;;;;;;;22.24;73.78;101535.84;6109123;19;20011;-72
2023/06/29 09:03:53;;;;;;;41.63;19.13;;;;;;;22.52;72.16;101536.34;6109284;19;20149;-73
2023/06/29 09:05:59;;;;;;;37.80;19.13;;;;;;;22.41;71.77;101531.84;6111787;19;22518;-74
2023/06/29 09:08:05;;;;;;;35.08;19.23;;;;;;;22.19;72.37;101546.06;6112088;19;20014;-74
2023/06/29 09:10:12;;;;;;;42.80;20.05;;;;;;;22.16;73.01;101542.75;6109533;19;20086;-73
2023/06/29 09:12:18;;;;;;;38.58;19.42;;;;;;;22.10;73.07;101536.91;6112329;19;20357;-75
2023/06/29 09:14:25;;;;;;;42.33;20.17;;;;;;;22.55;72.21;101538.78;6108410;19;20010;-74
2023/06/29 09:16:31;;;;;;;37.70;19.33;;;;;;;22.66;71.54;101536.06;6109734;19;20043;-73
2023/06/29 09:18:39;;;;;;;32.47;18.70;;;;;;;22.66;70.90;101538.75;6111481;19;20541;-75
2023/06/29 09:20:44;;;;;;;36.47;18.60;;;;;;;22.69;71.04;101535.81;6114886;19;20014;-73
2023/06/29 09:22:53;;;;;;;42.42;18.33;;;;;;;22.83;70.69;101533.84;6117820;19;20503;-74
2023/06/29 09:24:58;;;;;;;35.85;18.58;;;;;;;22.79;70.96;101536.78;6118404;19;20393;-74
2023/06/29 09:27:19;;;;;;;32.70;16.40;;;;;;;23.00;70.76;101538.72;6115349;19;20047;-75
2023/06/29 09:29:29;;;;;;;31.80;16.27;;;;;;;23.25;69.10;101536.69;6116503;19;20018;-73
2023/06/29 09:31:35;;;;;;;36.38;18.13;;;;;;;23.41;68.63;101529.09;6116916;19;20010;-73
2023/06/29 09:33:43;;;;;;;32.13;16.67;;;;;;;23.54;68.70;101532.44;6113691;19;20014;-74
2023/06/29 09:35:50;;;;;;;32.88;15.30;;;;;;;23.78;67.32;101528.69;6116490;19;20070;-75